TimeEDT,TemperatureF,Dew PointF,Humidity,Sea Level PressureIn,VisibilityMPH,Wind Direction,Wind SpeedMPH,Gust SpeedMPH,PrecipitationIn,Events,Conditions,WindDirDegrees,DateUTC
12:04 AM,44.6,42.8,93,29.70,6.0,NW,5.8,-,N/A,Rain,Light Rain,310,2013-04-01 04:04:00
12:55 AM,42.8,42.3,98,29.67,10.0,North,8.1,-,0.13,Rain,Light Rain,350,2013-04-01 04:55:00
1:16 AM,42.8,42.8,100,29.65,6.0,NNW,6.9,-,N/A,Rain,Light Rain,340,2013-04-01 05:16:00
1:17 AM,42.8,42.8,100,29.65,6.0,NNW,5.8,-,N/A,Rain,Light Rain,330,2013-04-01 05:17:00
1:29 AM,42.8,42.8,100,29.65,7.0,NNW,6.9,-,N/A,Rain,Light Rain,340,2013-04-01 05:29:00
1:33 AM,42.8,42.8,100,29.65,7.0,NNW,6.9,-,N/A,Rain,Light Rain,340,2013-04-01 05:33:00
1:37 AM,42.8,42.8,100,29.65,8.0,NNW,6.9,-,N/A,Rain,Light Rain,330,2013-04-01 05:37:00
1:52 AM,42.8,42.8,100,29.64,7.0,NNW,8.1,-,N/A,Rain,Light Rain,340,2013-04-01 05:52:00
1:55 AM,42.4,41.9,98,29.64,6.0,North,6.9,-,0.06,Rain,Light Rain,350,2013-04-01 05:55:00
2:13 AM,42.8,41.0,93,29.62,10.0,North,8.1,-,N/A,Rain,Light Rain,350,2013-04-01 06:13:00
2:14 AM,42.8,41.0,93,29.62,10.0,North,8.1,-,N/A,Rain,Light Rain,350,2013-04-01 06:14:00
2:17 AM,42.8,41.0,93,29.62,10.0,North,8.1,-,N/A,Rain,Light Rain,350,2013-04-01 06:17:00
2:22 AM,42.8,41.0,93,29.62,10.0,North,8.1,-,N/A,,Overcast,350,2013-04-01 06:22:00
2:33 AM,42.8,41.0,93,29.63,10.0,NNW,6.9,-,N/A,,Overcast,330,2013-04-01 06:33:00
2:39 AM,42.8,41.0,93,29.63,10.0,NNW,9.2,-,N/A,,Overcast,330,2013-04-01 06:39:00
2:46 AM,42.8,41.0,93,29.63,10.0,NNW,6.9,-,N/A,,Light Drizzle,330,2013-04-01 06:46:00
2:51 AM,42.8,41.0,93,29.63,10.0,NNW,8.1,-,N/A,,Light Drizzle,330,2013-04-01 06:51:00
2:54 AM,42.8,41.0,93,29.63,10.0,NNW,8.1,-,N/A,,Light Drizzle,330,2013-04-01 06:54:00
2:55 AM,42.1,41.5,98,29.63,10.0,NNW,9.2,-,0.01,,Light Drizzle,330,2013-04-01 06:55:00
2:59 AM,42.8,41.0,93,29.63,10.0,NW,8.1,-,N/A,Rain,Light Rain,320,2013-04-01 06:59:00
3:00 AM,42.8,41.0,93,29.63,10.0,NW,8.1,-,N/A,Rain,Light Rain,320,2013-04-01 07:00:00
3:06 AM,42.8,41.0,93,29.62,10.0,NNW,8.1,-,N/A,,Light Drizzle,340,2013-04-01 07:06:00
3:14 AM,42.8,41.0,93,29.62,10.0,North,8.1,-,N/A,Rain,Light Rain,350,2013-04-01 07:14:00
3:18 AM,42.8,41.0,93,29.62,10.0,NNW,8.1,-,N/A,Rain,Light Rain,340,2013-04-01 07:18:00
3:24 AM,41.0,41.0,100,29.61,10.0,North,8.1,-,N/A,,Overcast,350,2013-04-01 07:24:00
3:55 AM,41.5,41.0,98,29.62,10.0,NNW,8.1,-,0.00,,Overcast,340,2013-04-01 07:55:00
4:01 AM,41.0,41.0,100,29.62,10.0,NNW,6.9,-,N/A,,Overcast,330,2013-04-01 08:01:00
4:23 AM,41.0,41.0,100,29.63,10.0,NNW,6.9,-,N/A,,Overcast,330,2013-04-01 08:23:00
4:48 AM,41.0,41.0,100,29.64,10.0,West,5.8,-,N/A,,Overcast,270,2013-04-01 08:48:00
4:55 AM,40.6,40.1,98,29.64,10.0,West,5.8,-,0.01,,Overcast,280,2013-04-01 08:55:00
5:08 AM,41.0,39.2,93,29.65,10.0,West,3.5,-,N/A,,Overcast,260,2013-04-01 09:08:00
5:23 AM,41.0,39.2,93,29.66,10.0,WSW,4.6,-,N/A,,Overcast,250,2013-04-01 09:23:00
5:50 AM,41.0,41.0,100,29.66,10.0,SSW,3.5,-,N/A,,Overcast,200,2013-04-01 09:50:00
5:55 AM,41.0,40.5,98,29.66,10.0,South,3.5,-,N/A,,Overcast,190,2013-04-01 09:55:00
6:27 AM,41.0,41.0,100,29.66,10.0,South,3.5,-,N/A,,Overcast,170,2013-04-01 10:27:00
6:55 AM,40.6,40.1,98,29.67,10.0,Calm,Calm,-,N/A,,Overcast,0,2013-04-01 10:55:00
6:58 AM,41.0,39.2,93,29.67,2.0,Calm,Calm,-,N/A,,Overcast,0,2013-04-01 10:58:00
6:59 AM,41.0,39.2,93,29.67,1.8,Calm,Calm,-,N/A,,Overcast,0,2013-04-01 10:59:00
7:04 AM,41.0,39.2,93,29.67,5.0,Calm,Calm,-,N/A,,Overcast,0,2013-04-01 11:04:00
7:55 AM,41.7,41.2,98,29.66,5.0,Calm,Calm,-,N/A,,Mostly Cloudy,0,2013-04-01 11:55:00
8:10 AM,42.8,42.8,100,29.65,6.0,South,3.5,-,N/A,,Mostly Cloudy,190,2013-04-01 12:10:00
8:55 AM,45.5,43.2,92,29.65,10.0,South,5.8,-,N/A,,Mostly Cloudy,170,2013-04-01 12:55:00
9:55 AM,48.0,43.2,83,29.65,10.0,SSW,8.1,-,N/A,,Overcast,210,2013-04-01 13:55:00
10:55 AM,51.3,43.3,74,29.62,10.0,South,10.4,-,N/A,,Mostly Cloudy,170,2013-04-01 14:55:00
11:55 AM,56.8,43.3,61,29.60,10.0,SSW,10.4,-,N/A,,Mostly Cloudy,210,2013-04-01 15:55:00
12:55 PM,58.3,38.8,48,29.57,10.0,WSW,16.1,23.0,N/A,,Mostly Cloudy,250,2013-04-01 16:55:00
1:55 PM,61.0,37.2,41,29.55,10.0,SW,20.7,28.8,N/A,,Mostly Cloudy,230,2013-04-01 17:55:00
2:28 PM,59.0,37.4,45,29.56,10.0,WNW,26.5,38.0,N/A,Rain,Light Rain,290,2013-04-01 18:28:00
2:32 PM,55.4,42.8,63,29.56,9.0,WNW,32.2,40.3,N/A,Rain,Light Rain,300,2013-04-01 18:32:00
2:53 PM,46.4,42.8,87,29.59,10.0,WNW,16.1,-,N/A,,Mostly Cloudy,300,2013-04-01 18:53:00
2:55 PM,46.8,43.3,88,29.59,10.0,WNW,18.4,23.0,0.00,,Mostly Cloudy,300,2013-04-01 18:55:00
3:41 PM,48.2,39.2,71,29.61,10.0,WNW,24.2,29.9,N/A,,Overcast,300,2013-04-01 19:41:00
3:51 PM,44.6,35.6,71,29.63,10.0,WNW,21.9,33.4,N/A,,Light Drizzle,300,2013-04-01 19:51:00
3:55 PM,44.6,34.9,69,29.64,10.0,NW,26.5,33.4,0.00,,Light Drizzle,310,2013-04-01 19:55:00
4:03 PM,42.8,32.0,66,29.64,10.0,WNW,26.5,39.1,N/A,,Mostly Cloudy,290,2013-04-01 20:03:00
4:06 PM,42.8,32.0,66,29.65,10.0,WNW,23.0,39.1,N/A,,Mostly Cloudy,290,2013-04-01 20:06:00
4:16 PM,42.8,32.0,66,29.65,10.0,WNW,15.0,31.1,N/A,,Light Drizzle,290,2013-04-01 20:16:00
4:27 PM,42.8,32.0,66,29.66,10.0,WNW,13.8,25.3,N/A,,Mostly Cloudy,290,2013-04-01 20:27:00
4:55 PM,42.4,29.5,60,29.68,10.0,NW,24.2,36.8,0.00,,Overcast,310,2013-04-01 20:55:00
5:55 PM,40.6,26.2,57,29.71,10.0,WNW,18.4,27.6,N/A,,Mostly Cloudy,300,2013-04-01 21:55:00
6:55 PM,41.5,22.1,46,29.73,10.0,NW,16.1,20.7,N/A,,Partly Cloudy,320,2013-04-01 22:55:00
7:55 PM,37.9,16.7,42,29.76,10.0,NNW,12.7,-,N/A,,Clear,330,2013-04-01 23:55:00
8:55 PM,36.1,14.5,41,29.80,10.0,WNW,10.4,-,N/A,,Clear,300,2013-04-02 00:55:00
9:55 PM,34.9,14.5,43,29.82,10.0,WNW,12.7,20.7,N/A,,Clear,300,2013-04-02 01:55:00
10:55 PM,33.6,15.4,47,29.83,10.0,NW,8.1,-,N/A,,Clear,310,2013-04-02 02:55:00
11:55 PM,32.5,14.2,47,29.85,10.0,NW,10.4,-,N/A,,Clear,310,2013-04-02 03:55:00